createdAt,value
2019-04-16T00:00:42.697Z,58.38
2019-04-16T00:01:45.338Z,58.61
2019-04-16T00:02:42.247Z,59.03
2019-04-16T00:03:42.361Z,58.92
2019-04-16T00:04:42.531Z,59.64
2019-04-16T00:05:42.662Z,59.13
2019-04-16T00:06:42.796Z,59.03
2019-04-16T00:07:43.803Z,58.82
2019-04-16T00:08:43.150Z,59.85
2019-04-16T00:09:43.309Z,59.99
2019-04-16T00:10:43.453Z,59.78
2019-04-16T00:11:43.606Z,58.95
2019-04-16T00:12:44.304Z,59.05
2019-04-16T00:13:43.924Z,59.16
2019-04-16T00:14:44.042Z,59.75
2019-04-16T00:15:44.302Z,59.05
2019-04-16T00:16:44.620Z,59.05
2019-04-16T00:17:47.260Z,59.55
2019-04-16T00:18:57.153Z,59.05
2019-04-16T00:19:47.005Z,59.23
2019-04-16T00:20:45.220Z,58.82
2019-04-16T00:21:45.342Z,59.23
2019-04-16T00:22:45.496Z,58.92
2019-04-16T00:23:46.797Z,59.23
2019-04-16T00:24:46.792Z,59.03
2019-04-16T00:25:45.911Z,59.23
2019-04-16T00:26:46.080Z,59.03
2019-04-16T00:27:46.816Z,58.92
2019-04-16T00:28:46.434Z,58.92
2019-04-16T00:29:46.577Z,58.23
2019-04-16T00:30:46.698Z,58.72
2019-04-16T00:31:46.852Z,58.40
2019-04-16T00:32:46.982Z,58.20
2019-04-16T00:33:47.816Z,56.62
2019-04-16T00:34:47.269Z,56.39
2019-04-16T00:35:47.511Z,55.15
2019-04-16T00:36:48.699Z,55.00
2019-04-16T00:37:51.409Z,55.43
2019-04-16T00:38:53.903Z,54.06
2019-04-16T00:39:49.255Z,54.27
2019-04-16T00:40:48.493Z,54.40
2019-04-16T00:41:48.626Z,55.33
2019-04-16T00:42:48.753Z,56.05
2019-04-16T00:43:48.900Z,57.21
2019-04-16T00:44:49.033Z,57.21
2019-04-16T00:45:49.159Z,57.65
2019-04-16T00:46:49.370Z,57.97
2019-04-16T00:47:51.474Z,58.40
2019-04-16T00:48:51.304Z,58.72
2019-04-16T00:49:49.878Z,58.20
2019-04-16T00:50:50.036Z,58.40
2019-04-16T00:51:50.202Z,58.30
2019-04-16T00:52:50.375Z,58.09
2019-04-16T00:53:50.522Z,58.20
2019-04-16T00:54:50.676Z,58.09
2019-04-16T00:55:50.821Z,57.79
2019-04-16T00:56:51.051Z,57.68
2019-04-16T00:57:51.194Z,57.58
2019-04-16T00:58:52.143Z,58.92
2019-04-16T00:59:56.367Z,57.48
2019-04-16T01:00:51.641Z,57.58
2019-04-16T01:01:52.305Z,57.04
2019-04-16T01:02:51.920Z,56.62
2019-04-16T01:03:52.058Z,55.98
2019-04-16T01:04:52.203Z,54.92
2019-04-16T01:05:52.348Z,54.61
2019-04-16T01:06:52.479Z,54.50
2019-04-16T01:07:52.606Z,55.20
2019-04-16T01:08:54.793Z,55.13
2019-04-16T01:09:53.928Z,54.50
2019-04-16T01:10:53.152Z,54.92
2019-04-16T01:11:53.293Z,54.06
2019-04-16T01:12:53.454Z,54.27
2019-04-16T01:13:55.573Z,53.14
2019-04-16T01:14:58.907Z,53.55
2019-04-16T01:15:54.856Z,53.45
2019-04-16T01:16:54.085Z,53.55
2019-04-16T01:17:54.228Z,53.45
2019-04-16T01:18:54.367Z,52.70
2019-04-16T01:19:54.492Z,52.50
2019-04-16T01:20:55.738Z,52.47
2019-04-16T01:21:54.959Z,51.34
2019-04-16T01:22:55.073Z,51.34
2019-04-16T01:23:55.205Z,50.08
2019-04-16T01:24:55.329Z,50.38
2019-04-16T01:25:56.219Z,50.80
2019-04-16T01:26:58.277Z,50.16
2019-04-16T01:27:59.802Z,50.16
2019-04-16T01:28:56.987Z,49.54
2019-04-16T01:29:56.205Z,49.44
2019-04-16T01:30:56.339Z,48.90
2019-04-16T01:31:56.414Z,49.21
2019-04-16T01:32:56.643Z,49.62
2019-04-16T01:33:56.877Z,49.31
2019-04-16T01:34:57.136Z,49.64
2019-04-16T01:35:57.254Z,49.82
2019-04-16T01:36:58.313Z,49.74
2019-04-16T01:37:57.929Z,49.85
2019-04-16T01:39:14.746Z,49.21
2019-04-16T01:40:00.333Z,48.90
2019-04-16T01:40:58.154Z,49.62
2019-04-16T01:41:58.399Z,49.31
2019-04-16T01:42:59.321Z,49.52
2019-04-16T01:43:58.798Z,49.64
2019-04-16T01:44:59.926Z,49.31
2019-04-16T01:46:01.470Z,49.62
2019-04-16T01:47:03.440Z,48.80
2019-04-16T01:48:00.538Z,48.80
2019-04-16T01:48:59.750Z,48.26
2019-04-16T01:49:59.902Z,49.31
2019-04-16T01:51:00.043Z,48.26
2019-04-16T01:52:00.210Z,48.16
2019-04-16T01:53:00.348Z,48.26
2019-04-16T01:54:00.471Z,47.87
2019-04-16T01:55:00.581Z,49.62
2019-04-16T01:56:01.324Z,47.87
2019-04-16T01:57:01.174Z,48.18
2019-04-16T01:58:02.701Z,48.46
2019-04-16T01:59:05.469Z,47.85
2019-04-16T02:00:06.831Z,47.74
2019-04-16T02:01:02.769Z,47.95
2019-04-16T02:02:02.347Z,47.92
2019-04-16T02:03:01.968Z,47.85
2019-04-16T02:04:03.010Z,48.05
2019-04-16T02:05:02.228Z,48.16
2019-04-16T02:06:02.346Z,47.44
2019-04-16T02:07:02.615Z,47.54
2019-04-16T02:08:02.746Z,47.62
2019-04-16T02:09:03.309Z,47.62
2019-04-16T02:10:07.539Z,47.62
2019-04-16T02:11:03.237Z,47.52
2019-04-16T02:12:03.549Z,47.62
2019-04-16T02:13:03.549Z,47.85
2019-04-16T02:14:04.324Z,47.23
2019-04-16T02:15:03.925Z,47.64
2019-04-16T02:16:04.025Z,47.74
2019-04-16T02:17:04.265Z,47.33
2019-04-16T02:18:04.388Z,47.82
2019-04-16T02:19:04.491Z,47.62
2019-04-16T02:20:06.176Z,47.23
2019-04-16T02:21:09.527Z,47.72
2019-04-16T02:22:06.200Z,47.20
2019-04-16T02:23:05.149Z,47.00
2019-04-16T02:24:06.331Z,47.11
2019-04-16T02:25:05.509Z,46.90
2019-04-16T02:26:06.331Z,46.48
2019-04-16T02:27:05.927Z,46.80
2019-04-16T02:28:06.338Z,46.39
2019-04-16T02:29:06.352Z,46.59
2019-04-16T02:30:06.763Z,46.90
2019-04-16T02:31:13.909Z,46.48
2019-04-16T02:32:08.972Z,47.00
2019-04-16T02:33:07.135Z,46.80
2019-04-16T02:34:07.353Z,47.11
2019-04-16T02:35:07.619Z,46.59
2019-04-16T02:36:07.740Z,46.90
2019-04-16T02:37:07.988Z,46.39
2019-04-16T02:38:12.213Z,46.80
2019-04-16T02:39:10.320Z,46.59
2019-04-16T02:40:08.492Z,47.13
2019-04-16T02:41:08.613Z,47.02
2019-04-16T02:42:08.783Z,47.41
2019-04-16T02:43:08.983Z,47.23
2019-04-16T02:44:14.051Z,46.92
2019-04-16T02:45:11.344Z,46.48
2019-04-16T02:46:09.543Z,46.80
2019-04-16T02:47:09.695Z,46.39
2019-04-16T02:48:15.510Z,46.80
2019-04-16T02:49:12.002Z,46.39
2019-04-16T02:50:10.115Z,46.18
2019-04-16T02:51:10.248Z,46.39
2019-04-16T02:52:14.991Z,46.48
2019-04-16T02:53:12.689Z,46.69
2019-04-16T02:54:10.662Z,46.39
2019-04-16T02:55:11.338Z,46.48
2019-04-16T02:56:17.381Z,46.69
2019-04-16T02:57:13.198Z,46.18
2019-04-16T02:58:11.390Z,46.39
2019-04-16T02:59:13.378Z,46.41
2019-04-16T03:00:17.581Z,46.18
2019-04-16T03:01:13.089Z,45.87
2019-04-16T03:02:12.191Z,46.20
2019-04-16T03:03:12.381Z,46.28
2019-04-16T03:04:12.519Z,46.28
2019-04-16T03:05:12.670Z,46.18
2019-04-16T03:06:12.821Z,46.69
2019-04-16T03:07:12.969Z,46.08
2019-04-16T03:08:13.103Z,46.72
2019-04-16T03:09:13.225Z,46.08
2019-04-16T03:10:13.959Z,46.69
2019-04-16T03:11:17.058Z,45.25
2019-04-16T03:12:13.730Z,45.76
2019-04-16T03:13:13.967Z,46.59
2019-04-16T03:14:14.101Z,45.46
2019-04-16T03:15:14.333Z,45.46
2019-04-16T03:16:14.907Z,45.87
2019-04-16T03:17:14.741Z,45.46
2019-04-16T03:18:16.140Z,45.46
2019-04-16T03:19:19.248Z,45.76
2019-04-16T03:20:17.301Z,46.59
2019-04-16T03:21:15.518Z,45.04
2019-04-16T03:22:15.637Z,45.89
2019-04-16T03:23:15.737Z,46.59
2019-04-16T03:24:15.967Z,45.36
2019-04-16T03:25:16.108Z,45.36
2019-04-16T03:26:18.070Z,45.17
2019-04-16T03:27:21.899Z,44.95
2019-04-16T03:28:17.672Z,45.13
2019-04-16T03:29:17.836Z,45.04
2019-04-16T03:30:17.048Z,45.36
2019-04-16T03:31:22.143Z,45.25
2019-04-16T03:32:19.412Z,45.36
2019-04-16T03:33:17.600Z,45.36
2019-04-16T03:34:19.032Z,45.04
2019-04-16T03:35:19.022Z,44.12
2019-04-16T03:36:18.207Z,44.84
2019-04-16T03:37:18.432Z,44.74
2019-04-16T03:38:18.651Z,44.84
2019-04-16T03:39:18.909Z,45.25
2019-04-16T03:40:24.750Z,44.33
2019-04-16T03:41:20.223Z,45.15
2019-04-16T03:42:19.428Z,44.95
2019-04-16T03:43:19.660Z,44.84
2019-04-16T03:44:19.791Z,44.74
2019-04-16T03:45:19.899Z,44.74
2019-04-16T03:46:20.025Z,44.84
2019-04-16T03:47:20.272Z,44.84
2019-04-16T03:48:20.694Z,44.74
2019-04-16T03:49:21.655Z,44.53
2019-04-16T03:50:20.878Z,44.95
2019-04-16T03:51:21.000Z,45.04
2019-04-16T03:52:21.222Z,45.36
2019-04-16T03:53:22.341Z,44.31
2019-04-16T03:54:22.466Z,44.84
2019-04-16T03:55:43.718Z,44.74
2019-04-16T03:56:21.886Z,44.02
2019-04-16T03:57:21.995Z,44.23
2019-04-16T03:58:22.209Z,44.84
2019-04-16T03:59:22.453Z,44.12
2019-04-16T04:00:23.718Z,44.95
2019-04-16T04:01:22.790Z,44.02
2019-04-16T04:02:23.190Z,44.02
2019-04-16T04:03:26.137Z,44.64
2019-04-16T04:04:28.950Z,44.64
2019-04-16T04:05:24.624Z,45.04
2019-04-16T04:06:23.810Z,44.95
2019-04-16T04:07:23.946Z,44.74
2019-04-16T04:08:24.174Z,44.84
2019-04-16T04:09:24.862Z,44.95
2019-04-16T04:10:30.875Z,44.74
2019-04-16T04:11:26.782Z,45.04
2019-04-16T04:12:27.626Z,44.74
2019-04-16T04:13:25.184Z,44.84
2019-04-16T04:14:25.506Z,44.95
2019-04-16T04:15:27.126Z,44.74
2019-04-16T04:16:27.348Z,44.02
2019-04-16T04:17:26.032Z,44.84
2019-04-16T04:18:26.277Z,44.12
2019-04-16T04:19:27.350Z,44.64
2019-04-16T04:20:26.533Z,44.43
2019-04-16T04:21:26.738Z,44.41
2019-04-16T04:22:26.970Z,44.23
2019-04-16T04:23:28.527Z,44.74
2019-04-16T04:24:31.315Z,43.59
2019-04-16T04:25:28.599Z,43.28
2019-04-16T04:26:27.794Z,43.59
2019-04-16T04:27:27.997Z,43.79
2019-04-16T04:28:28.214Z,43.59
2019-04-16T04:29:28.452Z,43.38
2019-04-16T04:30:29.604Z,43.38
2019-04-16T04:31:32.357Z,44.31
2019-04-16T04:32:32.460Z,43.79
2019-04-16T04:33:30.220Z,44.41
2019-04-16T04:34:29.443Z,44.00
2019-04-16T04:35:29.590Z,43.48
2019-04-16T04:36:29.876Z,44.10
2019-04-16T04:37:31.909Z,43.59
2019-04-16T04:38:33.606Z,43.59
2019-04-16T04:39:31.455Z,43.38
2019-04-16T04:40:43.741Z,43.59
2019-04-16T04:41:32.800Z,43.28
2019-04-16T04:42:31.848Z,44.10
2019-04-16T04:43:32.608Z,43.48
2019-04-16T04:44:33.602Z,44.10
2019-04-16T04:45:32.529Z,43.38
2019-04-16T04:46:31.740Z,43.48
2019-04-16T04:47:31.972Z,43.79
2019-04-16T04:48:32.077Z,43.28
2019-04-16T04:49:32.308Z,43.28
2019-04-16T04:50:35.364Z,43.59
2019-04-16T04:51:32.657Z,43.38
2019-04-16T04:52:32.882Z,43.59
2019-04-16T04:53:32.988Z,43.18
2019-04-16T04:54:33.212Z,43.38
2019-04-16T04:55:33.446Z,42.77
2019-04-16T04:56:33.669Z,43.16
2019-04-16T04:57:33.806Z,42.97
2019-04-16T04:58:34.779Z,43.16
2019-04-16T04:59:36.743Z,42.14
2019-04-16T05:00:37.452Z,43.67
2019-04-16T05:01:34.438Z,43.05
2019-04-16T05:02:34.652Z,42.44
2019-04-16T05:03:34.868Z,42.54
2019-04-16T05:04:35.099Z,42.54
2019-04-16T05:05:35.245Z,41.82
2019-04-16T05:06:35.483Z,42.13
2019-04-16T05:07:35.609Z,42.21
2019-04-16T05:08:35.750Z,42.21
2019-04-16T05:09:36.740Z,41.90
2019-04-16T05:10:42.851Z,42.11
2019-04-16T05:11:37.352Z,41.70
2019-04-16T05:12:36.572Z,41.90
2019-04-16T05:13:36.684Z,42.00
2019-04-16T05:14:36.806Z,42.00
2019-04-16T05:15:37.072Z,42.00
2019-04-16T05:16:37.176Z,41.90
2019-04-16T05:17:38.488Z,41.80
2019-04-16T05:18:41.973Z,42.00
2019-04-16T05:19:37.808Z,41.70
2019-04-16T05:20:37.914Z,42.00
2019-04-16T05:21:38.122Z,42.42
2019-04-16T05:22:38.869Z,41.68
2019-04-16T05:23:38.578Z,41.68
2019-04-16T05:24:38.853Z,41.78
2019-04-16T05:25:38.985Z,41.27
2019-04-16T05:26:39.080Z,41.37
2019-04-16T05:27:41.213Z,41.56
2019-04-16T05:28:44.516Z,40.63
2019-04-16T05:29:40.659Z,40.63
2019-04-16T05:30:40.833Z,40.10
2019-04-16T05:31:40.035Z,40.51
2019-04-16T05:32:40.250Z,40.41
2019-04-16T05:33:40.474Z,40.53
2019-04-16T05:34:40.685Z,40.10
2019-04-16T05:35:41.457Z,40.61
2019-04-16T05:36:46.232Z,39.39
2019-04-16T05:37:43.225Z,40.41
2019-04-16T05:38:41.384Z,40.72
2019-04-16T05:39:41.633Z,40.61
2019-04-16T05:40:41.875Z,40.10
2019-04-16T05:41:42.368Z,39.07
2019-04-16T05:42:42.865Z,39.98
2019-04-16T05:43:42.462Z,39.67
2019-04-16T05:44:42.602Z,39.47
2019-04-16T05:45:42.714Z,39.25
2019-04-16T05:46:46.522Z,39.47
2019-04-16T05:47:48.744Z,38.95
2019-04-16T05:48:43.350Z,39.04
2019-04-16T05:49:43.463Z,38.73
2019-04-16T05:50:43.588Z,38.73
2019-04-16T05:51:44.762Z,39.12
2019-04-16T05:52:43.962Z,38.71
2019-04-16T05:53:44.194Z,38.20
2019-04-16T05:54:45.345Z,37.69
2019-04-16T05:55:49.647Z,38.71
2019-04-16T05:56:44.626Z,37.55
2019-04-16T05:57:44.731Z,37.04
2019-04-16T05:58:44.978Z,37.54
2019-04-16T05:59:45.203Z,36.99
2019-04-16T06:00:45.451Z,36.49
2019-04-16T06:01:46.219Z,36.88
2019-04-16T06:02:49.780Z,36.70
2019-04-16T06:03:46.951Z,36.51
2019-04-16T06:04:46.179Z,37.26
2019-04-16T06:05:46.313Z,38.57
2019-04-16T06:06:46.431Z,38.70
2019-04-16T06:07:46.545Z,38.70
2019-04-16T06:08:46.671Z,38.10
2019-04-16T06:09:46.801Z,38.29
2019-04-16T06:10:49.795Z,37.47
2019-04-16T06:11:48.091Z,37.77
2019-04-16T06:12:47.301Z,38.70
2019-04-16T06:13:48.361Z,38.90
2019-04-16T06:14:49.560Z,38.80
2019-04-16T06:15:50.226Z,37.67
2019-04-16T06:16:48.928Z,37.57
2019-04-16T06:17:48.124Z,38.17
2019-04-16T06:18:49.863Z,37.76
2019-04-16T06:19:48.555Z,38.98
2019-04-16T06:20:49.323Z,38.17
2019-04-16T06:21:49.974Z,38.17
2019-04-16T06:22:49.198Z,37.45
2019-04-16T06:23:49.866Z,37.63
2019-04-16T06:24:50.369Z,38.17
2019-04-16T06:25:49.627Z,38.35
2019-04-16T06:26:49.753Z,38.23
2019-04-16T06:27:49.885Z,37.33
2019-04-16T06:28:55.120Z,37.02
2019-04-16T06:29:51.348Z,36.82
2019-04-16T06:30:50.548Z,37.02
2019-04-16T06:31:50.756Z,37.82
2019-04-16T06:32:50.989Z,37.60
2019-04-16T06:33:52.252Z,36.88
2019-04-16T06:34:51.468Z,37.28
2019-04-16T06:35:51.886Z,36.25
2019-04-16T06:36:51.860Z,36.38
2019-04-16T06:37:52.082Z,36.46
2019-04-16T06:38:54.983Z,36.97
2019-04-16T06:39:52.500Z,35.95
2019-04-16T06:40:52.759Z,36.05
2019-04-16T06:41:52.859Z,35.95
2019-04-16T06:42:54.108Z,36.15
2019-04-16T06:43:58.357Z,35.73
2019-04-16T06:44:55.373Z,34.91
2019-04-16T06:45:53.696Z,35.93
2019-04-16T06:46:53.895Z,35.61
2019-04-16T06:47:54.999Z,35.00
2019-04-16T06:48:54.177Z,36.14
2019-04-16T06:49:56.375Z,36.43
2019-04-16T06:50:54.551Z,34.89
2019-04-16T06:51:54.909Z,35.08
2019-04-16T06:52:55.879Z,34.98
2019-04-16T06:53:56.870Z,34.78
2019-04-16T06:54:56.875Z,35.17
2019-04-16T06:55:55.552Z,36.08
2019-04-16T06:56:55.896Z,35.56
2019-04-16T06:57:56.023Z,35.86
2019-04-16T06:58:57.427Z,35.46
2019-04-16T06:59:59.561Z,34.95
2019-04-16T07:00:57.366Z,34.22
2019-04-16T07:01:57.713Z,34.32
2019-04-16T07:03:02.468Z,34.95
2019-04-16T07:03:59.966Z,33.83
2019-04-16T07:05:00.836Z,35.56
2019-04-16T07:05:58.470Z,33.61
2019-04-16T07:06:57.895Z,33.83
2019-04-16T07:07:57.855Z,34.22
2019-04-16T07:08:58.067Z,34.12
2019-04-16T07:09:59.289Z,33.01
2019-04-16T07:10:58.480Z,34.13
2019-04-16T07:11:58.721Z,34.32
2019-04-16T07:12:59.883Z,33.80
2019-04-16T07:13:59.075Z,34.20
2019-04-16T07:14:59.308Z,34.19
2019-04-16T07:15:59.523Z,33.68
2019-04-16T07:17:00.924Z,34.17
2019-04-16T07:18:02.532Z,33.65
2019-04-16T07:19:01.107Z,34.26
2019-04-16T07:20:00.304Z,33.54
2019-04-16T07:21:00.513Z,33.24
2019-04-16T07:22:00.733Z,33.14
2019-04-16T07:23:01.887Z,33.43
2019-04-16T07:24:01.169Z,33.94
2019-04-16T07:25:04.259Z,33.02
2019-04-16T07:26:03.855Z,32.90
2019-04-16T07:27:02.698Z,33.60
2019-04-16T07:28:01.785Z,31.15
2019-04-16T07:29:02.077Z,30.50
2019-04-16T07:30:06.814Z,29.13
2019-04-16T07:31:04.456Z,28.26
2019-04-16T07:32:03.095Z,27.44
2019-04-16T07:33:02.844Z,27.92
2019-04-16T07:34:03.093Z,27.01
2019-04-16T07:35:03.323Z,27.00
2019-04-16T07:36:03.495Z,27.51
2019-04-16T07:37:03.727Z,25.58
2019-04-16T07:38:06.265Z,25.58
2019-04-16T07:39:06.110Z,25.06
2019-04-16T07:40:08.340Z,26.79
2019-04-16T07:41:10.991Z,26.20
2019-04-16T07:42:10.268Z,25.71
2019-04-16T07:43:06.861Z,27.25
2019-04-16T07:44:10.018Z,26.71
2019-04-16T07:45:11.442Z,26.28
2019-04-16T07:46:06.491Z,25.67
2019-04-16T07:47:05.687Z,25.96
2019-04-16T07:48:06.927Z,26.01
2019-04-16T07:49:07.257Z,26.85
2019-04-16T07:50:06.251Z,28.98
2019-04-16T07:51:06.421Z,28.89
2019-04-16T07:52:07.282Z,28.17
2019-04-16T07:53:07.773Z,27.04
2019-04-16T07:54:06.991Z,27.31
2019-04-16T07:55:07.407Z,28.11
2019-04-16T07:56:07.268Z,26.82
2019-04-16T07:57:07.499Z,27.77
2019-04-16T07:58:07.910Z,28.87
2019-04-16T07:59:07.883Z,27.25
2019-04-16T08:00:09.665Z,29.26
2019-04-16T08:01:12.672Z,28.02
2019-04-16T08:02:10.459Z,27.10
2019-04-16T08:03:09.708Z,27.10
2019-04-16T08:04:08.776Z,26.29
2019-04-16T08:05:09.772Z,25.81
2019-04-16T08:06:10.714Z,26.99
2019-04-16T08:07:10.908Z,25.58
2019-04-16T08:08:09.574Z,27.11
2019-04-16T08:09:09.782Z,26.62
2019-04-16T08:10:10.006Z,27.53
2019-04-16T08:11:10.225Z,27.22
2019-04-16T08:12:22.033Z,27.30
2019-04-16T08:13:14.130Z,27.89
2019-04-16T08:14:14.628Z,27.70
2019-04-16T08:15:14.185Z,27.69
2019-04-16T08:16:12.408Z,27.09
2019-04-16T08:17:11.471Z,27.16
2019-04-16T08:18:11.701Z,26.45
2019-04-16T08:19:12.259Z,26.93
2019-04-16T08:20:13.915Z,27.36
2019-04-16T08:21:12.578Z,27.76
2019-04-16T08:22:15.832Z,28.32
2019-04-16T08:23:16.626Z,30.27
2019-04-16T08:24:14.016Z,29.44
2019-04-16T08:25:13.901Z,28.52
2019-04-16T08:26:13.900Z,29.44
2019-04-16T08:27:19.128Z,28.01
2019-04-16T08:28:13.682Z,27.86
2019-04-16T08:29:13.917Z,26.20
2019-04-16T08:30:14.910Z,25.57
2019-04-16T08:31:14.276Z,24.76
2019-04-16T08:32:16.109Z,24.26
2019-04-16T08:33:15.578Z,24.26
2019-04-16T08:34:14.793Z,25.13
2019-04-16T08:35:15.015Z,23.64
2019-04-16T08:36:15.142Z,24.26
2019-04-16T08:37:15.368Z,25.40
2019-04-16T08:38:15.604Z,26.13
2019-04-16T08:39:15.828Z,26.93
2019-04-16T08:40:16.042Z,25.29
2019-04-16T08:41:20.000Z,25.88
2019-04-16T08:42:17.308Z,27.99
2019-04-16T08:43:16.506Z,25.37
2019-04-16T08:44:16.715Z,24.68
2019-04-16T08:45:20.441Z,25.23
2019-04-16T08:46:17.105Z,26.64
2019-04-16T08:47:17.224Z,25.43
2019-04-16T08:48:18.912Z,26.56
2019-04-16T08:49:22.104Z,25.83
2019-04-16T08:50:18.932Z,24.81
2019-04-16T08:51:29.634Z,24.70
2019-04-16T08:52:19.245Z,24.51
2019-04-16T08:53:18.456Z,25.45
2019-04-16T08:54:18.889Z,26.14
2019-04-16T08:55:20.476Z,26.22
2019-04-16T08:56:19.970Z,25.21
2019-04-16T08:57:19.204Z,25.14
2019-04-16T08:58:19.356Z,27.26
2019-04-16T08:59:19.597Z,25.94
2019-04-16T09:00:19.760Z,26.14
2019-04-16T09:01:23.307Z,27.06
2019-04-16T09:02:23.495Z,26.86
2019-04-16T09:03:21.316Z,27.47
2019-04-16T09:04:20.641Z,26.96
2019-04-16T09:05:20.789Z,27.67
2019-04-16T09:06:20.942Z,26.65
2019-04-16T09:07:21.957Z,29.06
2019-04-16T09:08:22.044Z,27.45
2019-04-16T09:09:24.674Z,26.46
2019-04-16T09:10:24.049Z,27.28
2019-04-16T09:11:23.935Z,26.57
2019-04-16T09:12:22.961Z,27.58
2019-04-16T09:13:22.090Z,26.76
2019-04-16T09:14:25.736Z,27.15
2019-04-16T09:15:26.980Z,28.96
2019-04-16T09:16:22.539Z,27.35
2019-04-16T09:17:23.425Z,27.86
2019-04-16T09:18:22.919Z,26.62
2019-04-16T09:19:23.924Z,27.20
2019-04-16T09:20:23.938Z,24.59
2019-04-16T09:21:23.414Z,27.10
2019-04-16T09:22:23.529Z,26.18
2019-04-16T09:23:26.650Z,27.70
2019-04-16T09:24:24.821Z,26.09
2019-04-16T09:25:24.048Z,26.12
2019-04-16T09:26:24.202Z,27.21
2019-04-16T09:27:28.574Z,24.79
2019-04-16T09:28:26.590Z,25.29
2019-04-16T09:29:25.686Z,25.12
2019-04-16T09:30:24.898Z,26.04
2019-04-16T09:31:26.949Z,26.56
2019-04-16T09:32:28.189Z,26.66
2019-04-16T09:33:26.412Z,26.06
2019-04-16T09:34:25.612Z,26.57
2019-04-16T09:35:25.732Z,25.87
2019-04-16T09:36:25.970Z,26.46
2019-04-16T09:37:28.734Z,26.86
2019-04-16T09:38:26.248Z,26.46
2019-04-16T09:39:27.013Z,26.17
2019-04-16T09:40:26.542Z,26.54
2019-04-16T09:41:27.438Z,25.92
2019-04-16T09:42:27.433Z,25.31
2019-04-16T09:43:27.148Z,24.29
2019-04-16T09:44:31.083Z,24.51
2019-04-16T09:45:29.535Z,25.73
2019-04-16T09:46:49.599Z,25.92
2019-04-16T09:47:32.672Z,24.91
2019-04-16T09:48:34.082Z,26.91
2019-04-16T09:49:29.291Z,25.89
2019-04-16T09:50:28.429Z,26.70
2019-04-16T09:51:29.432Z,24.78
2019-04-16T09:52:28.783Z,25.28
2019-04-16T09:53:34.284Z,24.60
2019-04-16T09:54:31.141Z,24.81
2019-04-16T09:55:29.364Z,24.84
2019-04-16T09:56:30.592Z,25.34
2019-04-16T09:57:31.463Z,26.25
2019-04-16T09:58:31.448Z,25.95
2019-04-16T09:59:30.033Z,26.26
2019-04-16T10:00:30.454Z,25.06
2019-04-16T10:01:30.949Z,24.36
2019-04-16T10:02:30.543Z,25.67
2019-04-16T10:03:30.777Z,24.96
2019-04-16T10:04:30.905Z,27.19
2019-04-16T10:05:31.456Z,26.67
2019-04-16T10:06:31.326Z,26.07
2019-04-16T10:07:31.942Z,26.75
2019-04-16T10:08:31.649Z,29.05
2019-04-16T10:09:31.785Z,26.23
2019-04-16T10:10:32.972Z,24.91
2019-04-16T10:11:32.770Z,26.42
2019-04-16T10:12:33.321Z,26.46
2019-04-16T10:13:35.876Z,26.96
2019-04-16T10:14:33.788Z,27.06
2019-04-16T10:15:33.010Z,27.94
2019-04-16T10:16:33.140Z,29.05
2019-04-16T10:17:33.281Z,26.22
2019-04-16T10:18:35.074Z,25.92
2019-04-16T10:19:34.539Z,25.90
2019-04-16T10:20:33.766Z,26.09
2019-04-16T10:21:33.886Z,24.27
2019-04-16T10:22:34.096Z,24.68
2019-04-16T10:23:34.247Z,24.11
2019-04-16T10:24:34.958Z,25.33
2019-04-16T10:25:34.563Z,25.65
2019-04-16T10:26:34.966Z,25.04
2019-04-16T10:27:34.935Z,26.13
2019-04-16T10:28:37.010Z,25.04
2019-04-16T10:29:36.415Z,25.04
2019-04-16T10:30:35.645Z,25.43
2019-04-16T10:31:35.763Z,24.40
2019-04-16T10:32:35.888Z,24.50
2019-04-16T10:33:36.136Z,25.58
2019-04-16T10:34:36.563Z,24.59
2019-04-16T10:35:36.619Z,23.58
2019-04-16T10:36:38.009Z,24.31
2019-04-16T10:37:37.872Z,24.61
2019-04-16T10:38:37.093Z,24.43
2019-04-16T10:39:37.481Z,24.56
2019-04-16T10:40:37.968Z,24.16
2019-04-16T10:41:37.616Z,24.85
2019-04-16T10:42:37.857Z,24.24
2019-04-16T10:43:44.402Z,24.35
2019-04-16T10:44:40.248Z,24.46
2019-04-16T10:45:38.428Z,24.36
2019-04-16T10:46:38.538Z,24.37
2019-04-16T10:47:38.762Z,24.17
2019-04-16T10:48:39.018Z,24.36
2019-04-16T10:49:39.471Z,24.95
2019-04-16T10:50:39.352Z,24.43
2019-04-16T10:51:40.489Z,24.74
2019-04-16T10:52:39.629Z,24.62
2019-04-16T10:53:39.747Z,24.81
2019-04-16T10:54:39.900Z,24.41
2019-04-16T10:55:40.063Z,24.21
2019-04-16T10:56:40.346Z,25.00
2019-04-16T10:57:40.401Z,24.11
2019-04-16T10:58:41.486Z,24.42
2019-04-16T10:59:40.770Z,24.43
2019-04-16T11:00:40.912Z,25.24
2019-04-16T11:01:41.065Z,25.02
2019-04-16T11:02:41.245Z,24.23
2019-04-16T11:03:41.414Z,24.56
2019-04-16T11:04:43.303Z,24.46
2019-04-16T11:05:42.807Z,26.27
2019-04-16T11:06:41.950Z,26.37
2019-04-16T11:07:42.124Z,26.76
2019-04-16T11:08:42.268Z,25.56
2019-04-16T11:09:42.494Z,26.34
2019-04-16T11:10:43.746Z,26.85
2019-04-16T11:11:42.866Z,26.34
2019-04-16T11:12:43.022Z,25.13
2019-04-16T11:13:43.168Z,26.43
2019-04-16T11:14:43.341Z,24.23
2019-04-16T11:15:43.476Z,25.54
2019-04-16T11:16:43.760Z,25.05
2019-04-16T11:17:43.835Z,25.65
2019-04-16T11:18:43.977Z,26.26
2019-04-16T11:19:44.173Z,25.54
2019-04-16T11:20:44.403Z,24.52
2019-04-16T11:21:44.450Z,24.41
2019-04-16T11:22:44.581Z,24.42
2019-04-16T11:23:45.471Z,25.73
2019-04-16T11:24:45.472Z,25.43
2019-04-16T11:25:45.070Z,25.15
2019-04-16T11:26:45.211Z,26.07
2019-04-16T11:27:45.349Z,24.46
2019-04-16T11:28:45.952Z,25.76
2019-04-16T11:29:46.713Z,24.44
2019-04-16T11:30:48.714Z,26.35
2019-04-16T11:31:47.036Z,24.55
2019-04-16T11:32:46.117Z,24.75
2019-04-16T11:33:46.271Z,23.24
2019-04-16T11:34:46.389Z,24.46
2019-04-16T11:35:46.989Z,24.05
2019-04-16T11:36:46.864Z,24.07
2019-04-16T11:37:47.033Z,24.67
2019-04-16T11:38:47.207Z,23.36
2019-04-16T11:39:47.970Z,24.47
2019-04-16T11:40:47.572Z,26.67
2019-04-16T11:41:47.714Z,23.65
2019-04-16T11:42:47.888Z,25.16
2019-04-16T11:43:48.056Z,25.06
2019-04-16T11:44:50.209Z,25.07
2019-04-16T11:45:49.359Z,26.18
2019-04-16T11:46:48.479Z,24.37
2019-04-16T11:47:48.986Z,27.78
2019-04-16T11:48:50.327Z,25.15
2019-04-16T11:49:50.060Z,24.56
2019-04-16T11:50:49.168Z,26.86
2019-04-16T11:51:49.305Z,25.04
2019-04-16T11:52:50.011Z,24.82
2019-04-16T11:53:49.789Z,27.54
2019-04-16T11:54:49.950Z,25.52
2019-04-16T11:55:50.100Z,26.22
2019-04-16T11:56:50.252Z,26.21
2019-04-16T11:57:50.373Z,24.29
2019-04-16T11:58:50.644Z,23.38
2019-04-16T12:00:05.811Z,24.30
2019-04-16T12:00:51.942Z,25.10
2019-04-16T12:01:51.127Z,24.21
2019-04-16T12:02:51.238Z,24.32
2019-04-16T12:03:51.365Z,25.63
2019-04-16T12:04:55.942Z,24.32
2019-04-16T12:05:52.719Z,25.14
2019-04-16T12:06:51.954Z,24.33
2019-04-16T12:07:52.258Z,25.76
2019-04-16T12:08:52.395Z,24.15
2019-04-16T12:09:53.001Z,26.54
2019-04-16T12:10:53.520Z,25.93
2019-04-16T12:11:52.875Z,25.84
2019-04-16T12:12:52.996Z,24.22
2019-04-16T12:13:53.125Z,25.14
2019-04-16T12:14:53.285Z,25.54
2019-04-16T12:15:53.431Z,25.23
2019-04-16T12:16:53.590Z,24.71
2019-04-16T12:17:54.541Z,24.73
2019-04-16T12:18:55.025Z,23.73
2019-04-16T12:19:54.275Z,24.75
2019-04-16T12:20:54.469Z,25.95
2019-04-16T12:21:54.608Z,24.85
2019-04-16T12:22:54.752Z,25.25
2019-04-16T12:23:55.491Z,25.35
2019-04-16T12:24:54.999Z,26.35
2019-04-16T12:25:55.247Z,26.17
2019-04-16T12:26:55.509Z,25.05
2019-04-16T12:27:55.650Z,26.67
2019-04-16T12:28:55.811Z,25.96
2019-04-16T12:29:56.991Z,25.15
2019-04-16T12:30:56.228Z,27.25
2019-04-16T12:31:56.352Z,24.85
2019-04-16T12:32:56.451Z,25.25
2019-04-16T12:33:56.741Z,24.95
2019-04-16T12:34:56.849Z,25.06
2019-04-16T12:35:57.097Z,25.06
2019-04-16T12:36:57.387Z,25.25
2019-04-16T12:37:58.519Z,24.94
2019-04-16T12:38:57.731Z,25.24
2019-04-16T12:39:58.525Z,25.24
2019-04-16T12:40:58.105Z,26.85
2019-04-16T12:42:00.160Z,25.95
2019-04-16T12:42:59.552Z,25.67
2019-04-16T12:43:59.542Z,24.96
2019-04-16T12:44:58.936Z,25.35
2019-04-16T12:45:59.078Z,25.84
2019-04-16T12:46:59.257Z,26.73
2019-04-16T12:47:59.478Z,25.15
2019-04-16T12:48:59.537Z,27.56
2019-04-16T12:49:59.664Z,27.05
2019-04-16T12:50:59.827Z,26.33
2019-04-16T12:51:59.959Z,24.44
2019-04-16T12:53:00.135Z,25.16
2019-04-16T12:54:00.260Z,24.95
2019-04-16T12:55:00.423Z,26.17